sensor_id;sensor_type;location;lat;lon;timestamp;temperature;humidity
24338;DHT22;12457;50.832;4.346;2023-08-17T00:01:07;20.40;99.90
24338;DHT22;12457;50.832;4.346;2023-08-17T00:03:33;20.30;99.90
24338;DHT22;12457;50.832;4.346;2023-08-17T00:05:58;20.20;99.90
24338;DHT22;12457;50.832;4.346;2023-08-17T00:08:24;20.30;99.90
24338;DHT22;12457;50.832;4.346;2023-08-17T00:10:50;20.20;99.90
24338;DHT22;12457;50.832;4.346;2023-08-17T00:13:15;20.10;99.90
24338;DHT22;12457;50.832;4.346;2023-08-17T00:15:41;20.10;99.90
24338;DHT22;12457;50.832;4.346;2023-08-17T00:18:08;20.20;99.90
24338;DHT22;12457;50.832;4.346;2023-08-17T00:20:33;20.10;99.90
24338;DHT22;12457;50.832;4.346;2023-08-17T00:22:59;20.00;99.90
24338;DHT22;12457;50.832;4.346;2023-08-17T00:25:25;19.90;99.90
24338;DHT22;12457;50.832;4.346;2023-08-17T00:27:52;19.90;99.90
24338;DHT22;12457;50.832;4.346;2023-08-17T00:30:17;19.80;99.90
24338;DHT22;12457;50.832;4.346;2023-08-17T00:32:45;19.90;99.90
24338;DHT22;12457;50.832;4.346;2023-08-17T00:35:11;19.90;99.90
24338;DHT22;12457;50.832;4.346;2023-08-17T00:37:37;19.90;99.90
24338;DHT22;12457;50.832;4.346;2023-08-17T00:40:03;19.80;99.90
24338;DHT22;12457;50.832;4.346;2023-08-17T00:42:29;19.70;99.90
24338;DHT22;12457;50.832;4.346;2023-08-17T00:44:55;19.60;99.90
24338;DHT22;12457;50.832;4.346;2023-08-17T00:47:21;19.60;99.90
24338;DHT22;12457;50.832;4.346;2023-08-17T00:49:46;19.70;99.90
24338;DHT22;12457;50.832;4.346;2023-08-17T00:52:12;19.60;99.90
24338;DHT22;12457;50.832;4.346;2023-08-17T00:54:38;19.60;99.90
24338;DHT22;12457;50.832;4.346;2023-08-17T00:57:04;19.60;99.90
24338;DHT22;12457;50.832;4.346;2023-08-17T00:59:33;19.60;99.90
24338;DHT22;12457;50.832;4.346;2023-08-17T01:02:00;19.70;99.90
24338;DHT22;12457;50.832;4.346;2023-08-17T01:04:26;19.70;99.90
24338;DHT22;12457;50.832;4.346;2023-08-17T01:06:51;19.70;99.90
24338;DHT22;12457;50.832;4.346;2023-08-17T01:09:17;19.90;99.90
24338;DHT22;12457;50.832;4.346;2023-08-17T01:12:13;20.00;99.90
24338;DHT22;12457;50.832;4.346;2023-08-17T01:17:29;19.90;99.90
24338;DHT22;12457;50.832;4.346;2023-08-17T01:19:58;20.00;99.90
24338;DHT22;12457;50.832;4.346;2023-08-17T01:22:24;19.80;99.90
24338;DHT22;12457;50.832;4.346;2023-08-17T01:24:54;19.80;99.90
24338;DHT22;12457;50.832;4.346;2023-08-17T01:27:23;19.80;99.90
24338;DHT22;12457;50.832;4.346;2023-08-17T01:29:50;19.80;99.90
24338;DHT22;12457;50.832;4.346;2023-08-17T01:32:24;19.70;99.90
24338;DHT22;12457;50.832;4.346;2023-08-17T01:34:58;19.60;99.90
24338;DHT22;12457;50.832;4.346;2023-08-17T01:37:28;19.60;99.90
24338;DHT22;12457;50.832;4.346;2023-08-17T01:39:58;19.60;99.90
24338;DHT22;12457;50.832;4.346;2023-08-17T01:42:26;19.40;99.90
24338;DHT22;12457;50.832;4.346;2023-08-17T01:44:52;19.50;99.90
24338;DHT22;12457;50.832;4.346;2023-08-17T01:47:22;19.40;99.90
24338;DHT22;12457;50.832;4.346;2023-08-17T01:49:48;19.20;99.90
24338;DHT22;12457;50.832;4.346;2023-08-17T01:52:14;19.20;99.90
24338;DHT22;12457;50.832;4.346;2023-08-17T01:54:41;19.10;99.90
24338;DHT22;12457;50.832;4.346;2023-08-17T01:57:07;19.10;99.90
24338;DHT22;12457;50.832;4.346;2023-08-17T01:59:32;19.10;99.90
24338;DHT22;12457;50.832;4.346;2023-08-17T02:01:58;19.00;99.90
24338;DHT22;12457;50.832;4.346;2023-08-17T02:04:25;19.00;99.90
24338;DHT22;12457;50.832;4.346;2023-08-17T02:06:52;19.00;99.90
24338;DHT22;12457;50.832;4.346;2023-08-17T02:09:18;19.10;99.90
24338;DHT22;12457;50.832;4.346;2023-08-17T02:11:43;19.00;99.90
24338;DHT22;12457;50.832;4.346;2023-08-17T02:14:09;18.90;99.90
24338;DHT22;12457;50.832;4.346;2023-08-17T02:16:35;18.80;99.90
24338;DHT22;12457;50.832;4.346;2023-08-17T02:19:01;18.80;99.90
24338;DHT22;12457;50.832;4.346;2023-08-17T02:21:27;18.70;99.90
24338;DHT22;12457;50.832;4.346;2023-08-17T02:23:52;18.70;99.90
24338;DHT22;12457;50.832;4.346;2023-08-17T02:26:18;18.70;99.90
24338;DHT22;12457;50.832;4.346;2023-08-17T02:28:48;18.70;99.90
24338;DHT22;12457;50.832;4.346;2023-08-17T02:31:14;18.60;99.90
24338;DHT22;12457;50.832;4.346;2023-08-17T02:33:40;18.60;99.90
24338;DHT22;12457;50.832;4.346;2023-08-17T02:36:06;18.50;99.90
24338;DHT22;12457;50.832;4.346;2023-08-17T02:38:32;18.40;99.90
24338;DHT22;12457;50.832;4.346;2023-08-17T02:41:00;18.30;99.90
24338;DHT22;12457;50.832;4.346;2023-08-17T02:43:26;18.40;99.90
24338;DHT22;12457;50.832;4.346;2023-08-17T02:45:52;18.40;99.90
24338;DHT22;12457;50.832;4.346;2023-08-17T02:48:18;18.40;99.90
24338;DHT22;12457;50.832;4.346;2023-08-17T02:50:44;18.40;99.90
24338;DHT22;12457;50.832;4.346;2023-08-17T02:53:10;18.40;99.90
24338;DHT22;12457;50.832;4.346;2023-08-17T02:55:37;18.40;99.90
24338;DHT22;12457;50.832;4.346;2023-08-17T02:58:22;18.40;99.90
24338;DHT22;12457;50.832;4.346;2023-08-17T03:00:51;18.40;99.90
24338;DHT22;12457;50.832;4.346;2023-08-17T03:03:17;18.40;99.90
24338;DHT22;12457;50.832;4.346;2023-08-17T03:05:43;18.40;99.90
24338;DHT22;12457;50.832;4.346;2023-08-17T03:08:08;18.30;99.90
24338;DHT22;12457;50.832;4.346;2023-08-17T03:10:34;18.40;99.90
24338;DHT22;12457;50.832;4.346;2023-08-17T03:13:03;18.40;99.90
24338;DHT22;12457;50.832;4.346;2023-08-17T03:15:29;18.40;99.90
24338;DHT22;12457;50.832;4.346;2023-08-17T03:17:56;18.40;99.90
24338;DHT22;12457;50.832;4.346;2023-08-17T03:20:21;18.40;99.90
24338;DHT22;12457;50.832;4.346;2023-08-17T03:22:47;18.40;99.90
24338;DHT22;12457;50.832;4.346;2023-08-17T03:25:13;18.30;99.90
24338;DHT22;12457;50.832;4.346;2023-08-17T03:27:40;18.40;99.90
24338;DHT22;12457;50.832;4.346;2023-08-17T03:30:12;18.50;99.90
24338;DHT22;12457;50.832;4.346;2023-08-17T03:32:38;18.50;99.90
24338;DHT22;12457;50.832;4.346;2023-08-17T03:35:04;18.50;99.90
24338;DHT22;12457;50.832;4.346;2023-08-17T03:37:30;18.50;99.90
24338;DHT22;12457;50.832;4.346;2023-08-17T03:39:56;18.50;99.90
24338;DHT22;12457;50.832;4.346;2023-08-17T03:42:22;18.50;99.90
24338;DHT22;12457;50.832;4.346;2023-08-17T03:44:47;18.60;99.90
24338;DHT22;12457;50.832;4.346;2023-08-17T03:47:13;18.60;99.90
24338;DHT22;12457;50.832;4.346;2023-08-17T03:49:40;18.50;99.90
24338;DHT22;12457;50.832;4.346;2023-08-17T03:52:05;18.50;99.90
24338;DHT22;12457;50.832;4.346;2023-08-17T03:54:31;18.60;99.90
24338;DHT22;12457;50.832;4.346;2023-08-17T03:56:57;18.60;99.90
24338;DHT22;12457;50.832;4.346;2023-08-17T03:59:24;18.60;99.90
24338;DHT22;12457;50.832;4.346;2023-08-17T04:01:51;18.40;99.90
24338;DHT22;12457;50.832;4.346;2023-08-17T04:04:17;18.40;99.90
24338;DHT22;12457;50.832;4.346;2023-08-17T04:06:43;18.30;99.90
24338;DHT22;12457;50.832;4.346;2023-08-17T04:09:09;18.30;99.90
24338;DHT22;12457;50.832;4.346;2023-08-17T04:11:35;18.30;99.90
24338;DHT22;12457;50.832;4.346;2023-08-17T04:14:02;18.30;99.90
24338;DHT22;12457;50.832;4.346;2023-08-17T04:16:28;18.40;99.90
24338;DHT22;12457;50.832;4.346;2023-08-17T04:18:54;18.40;99.90
24338;DHT22;12457;50.832;4.346;2023-08-17T04:21:19;18.30;99.90
24338;DHT22;12457;50.832;4.346;2023-08-17T04:23:46;18.30;99.90
24338;DHT22;12457;50.832;4.346;2023-08-17T04:26:12;18.30;99.90
24338;DHT22;12457;50.832;4.346;2023-08-17T04:28:40;18.20;99.90
24338;DHT22;12457;50.832;4.346;2023-08-17T04:31:07;18.20;99.90
24338;DHT22;12457;50.832;4.346;2023-08-17T04:33:33;18.10;99.90
24338;DHT22;12457;50.832;4.346;2023-08-17T04:35:59;18.00;99.90
24338;DHT22;12457;50.832;4.346;2023-08-17T04:38:26;18.00;99.90
24338;DHT22;12457;50.832;4.346;2023-08-17T04:40:52;18.00;99.90
24338;DHT22;12457;50.832;4.346;2023-08-17T04:43:17;18.00;99.90
24338;DHT22;12457;50.832;4.346;2023-08-17T04:45:43;18.10;99.90
24338;DHT22;12457;50.832;4.346;2023-08-17T04:48:13;18.10;99.90
24338;DHT22;12457;50.832;4.346;2023-08-17T04:50:39;18.00;99.90
24338;DHT22;12457;50.832;4.346;2023-08-17T04:53:05;17.90;99.90
24338;DHT22;12457;50.832;4.346;2023-08-17T04:55:31;17.90;99.90
24338;DHT22;12457;50.832;4.346;2023-08-17T04:57:57;17.90;99.90
24338;DHT22;12457;50.832;4.346;2023-08-17T05:00:23;17.90;99.90
24338;DHT22;12457;50.832;4.346;2023-08-17T05:02:56;18.10;99.90
24338;DHT22;12457;50.832;4.346;2023-08-17T05:05:22;18.10;99.90
24338;DHT22;12457;50.832;4.346;2023-08-17T05:07:49;18.10;99.90
24338;DHT22;12457;50.832;4.346;2023-08-17T05:10:15;18.10;99.90
24338;DHT22;12457;50.832;4.346;2023-08-17T05:12:42;18.20;99.90
24338;DHT22;12457;50.832;4.346;2023-08-17T05:15:08;18.20;99.90
24338;DHT22;12457;50.832;4.346;2023-08-17T05:17:34;18.30;99.90
24338;DHT22;12457;50.832;4.346;2023-08-17T05:20:01;18.30;99.90
24338;DHT22;12457;50.832;4.346;2023-08-17T05:22:27;18.30;99.90
24338;DHT22;12457;50.832;4.346;2023-08-17T05:24:53;18.30;99.90
24338;DHT22;12457;50.832;4.346;2023-08-17T05:27:18;18.30;99.90
24338;DHT22;12457;50.832;4.346;2023-08-17T05:29:44;18.30;99.90
24338;DHT22;12457;50.832;4.346;2023-08-17T05:32:10;18.30;99.90
24338;DHT22;12457;50.832;4.346;2023-08-17T05:34:36;18.40;99.90
24338;DHT22;12457;50.832;4.346;2023-08-17T05:37:01;18.40;99.90
24338;DHT22;12457;50.832;4.346;2023-08-17T05:39:28;18.40;99.90
24338;DHT22;12457;50.832;4.346;2023-08-17T05:41:54;18.40;99.90
24338;DHT22;12457;50.832;4.346;2023-08-17T05:44:20;18.40;99.90
24338;DHT22;12457;50.832;4.346;2023-08-17T05:46:46;18.30;99.90
24338;DHT22;12457;50.832;4.346;2023-08-17T05:49:14;18.40;99.90
24338;DHT22;12457;50.832;4.346;2023-08-17T05:51:39;18.40;99.90
24338;DHT22;12457;50.832;4.346;2023-08-17T05:54:05;18.50;99.90
24338;DHT22;12457;50.832;4.346;2023-08-17T05:56:31;18.50;99.90
24338;DHT22;12457;50.832;4.346;2023-08-17T05:58:57;18.50;99.90
24338;DHT22;12457;50.832;4.346;2023-08-17T06:01:24;18.50;99.90
24338;DHT22;12457;50.832;4.346;2023-08-17T06:03:49;18.60;99.90
24338;DHT22;12457;50.832;4.346;2023-08-17T06:06:15;18.60;99.90
24338;DHT22;12457;50.832;4.346;2023-08-17T06:08:41;18.60;99.90
24338;DHT22;12457;50.832;4.346;2023-08-17T06:11:06;18.70;99.90
24338;DHT22;12457;50.832;4.346;2023-08-17T06:13:32;18.70;99.90
24338;DHT22;12457;50.832;4.346;2023-08-17T06:16:22;18.80;99.90
24338;DHT22;12457;50.832;4.346;2023-08-17T06:18:49;18.80;99.90
24338;DHT22;12457;50.832;4.346;2023-08-17T06:21:15;18.80;99.90
24338;DHT22;12457;50.832;4.346;2023-08-17T06:23:41;18.80;99.90
24338;DHT22;12457;50.832;4.346;2023-08-17T06:26:06;18.80;99.90
24338;DHT22;12457;50.832;4.346;2023-08-17T06:28:33;18.90;99.90
24338;DHT22;12457;50.832;4.346;2023-08-17T06:30:59;18.90;99.90
24338;DHT22;12457;50.832;4.346;2023-08-17T06:33:25;18.90;99.90
24338;DHT22;12457;50.832;4.346;2023-08-17T06:35:51;18.80;99.90
24338;DHT22;12457;50.832;4.346;2023-08-17T06:38:17;18.70;99.90
24338;DHT22;12457;50.832;4.346;2023-08-17T06:40:43;18.70;99.90
24338;DHT22;12457;50.832;4.346;2023-08-17T06:43:09;18.80;99.90
24338;DHT22;12457;50.832;4.346;2023-08-17T06:45:35;18.80;99.90
24338;DHT22;12457;50.832;4.346;2023-08-17T06:48:01;18.70;99.90
24338;DHT22;12457;50.832;4.346;2023-08-17T06:50:27;18.70;99.90
24338;DHT22;12457;50.832;4.346;2023-08-17T06:52:54;18.80;99.90
24338;DHT22;12457;50.832;4.346;2023-08-17T06:55:20;18.90;99.90
24338;DHT22;12457;50.832;4.346;2023-08-17T06:57:46;18.90;99.90
24338;DHT22;12457;50.832;4.346;2023-08-17T07:00:40;18.90;99.90
24338;DHT22;12457;50.832;4.346;2023-08-17T07:03:07;19.00;99.90
24338;DHT22;12457;50.832;4.346;2023-08-17T07:05:33;19.00;99.90
24338;DHT22;12457;50.832;4.346;2023-08-17T07:08:00;19.00;99.90
24338;DHT22;12457;50.832;4.346;2023-08-17T07:10:27;19.20;99.90
24338;DHT22;12457;50.832;4.346;2023-08-17T07:12:53;19.10;99.90
24338;DHT22;12457;50.832;4.346;2023-08-17T07:15:19;19.00;99.90
24338;DHT22;12457;50.832;4.346;2023-08-17T07:17:44;19.10;99.90
24338;DHT22;12457;50.832;4.346;2023-08-17T07:20:11;19.10;99.90
24338;DHT22;12457;50.832;4.346;2023-08-17T07:22:39;19.20;99.90
24338;DHT22;12457;50.832;4.346;2023-08-17T07:25:06;19.20;99.90
24338;DHT22;12457;50.832;4.346;2023-08-17T07:27:34;19.20;99.90
24338;DHT22;12457;50.832;4.346;2023-08-17T07:29:59;19.00;99.90
24338;DHT22;12457;50.832;4.346;2023-08-17T07:32:25;18.90;99.90
24338;DHT22;12457;50.832;4.346;2023-08-17T07:34:51;19.00;99.90
24338;DHT22;12457;50.832;4.346;2023-08-17T07:37:17;19.00;99.90
24338;DHT22;12457;50.832;4.346;2023-08-17T07:39:43;19.30;99.90
24338;DHT22;12457;50.832;4.346;2023-08-17T07:42:09;19.40;99.90
24338;DHT22;12457;50.832;4.346;2023-08-17T07:44:35;19.40;99.90
24338;DHT22;12457;50.832;4.346;2023-08-17T07:47:03;19.50;99.90
24338;DHT22;12457;50.832;4.346;2023-08-17T07:49:39;19.50;99.90
24338;DHT22;12457;50.832;4.346;2023-08-17T07:52:08;19.60;99.90
24338;DHT22;12457;50.832;4.346;2023-08-17T07:54:33;19.60;99.90
24338;DHT22;12457;50.832;4.346;2023-08-17T07:56:59;19.70;99.90
24338;DHT22;12457;50.832;4.346;2023-08-17T07:59:25;19.70;99.90
24338;DHT22;12457;50.832;4.346;2023-08-17T08:01:50;19.80;99.90
24338;DHT22;12457;50.832;4.346;2023-08-17T08:04:16;19.90;99.90
24338;DHT22;12457;50.832;4.346;2023-08-17T08:06:42;20.00;99.90
24338;DHT22;12457;50.832;4.346;2023-08-17T08:09:08;20.10;99.90
24338;DHT22;12457;50.832;4.346;2023-08-17T08:11:34;19.90;99.90
24338;DHT22;12457;50.832;4.346;2023-08-17T08:13:59;19.90;99.90
24338;DHT22;12457;50.832;4.346;2023-08-17T08:16:35;19.90;99.90
24338;DHT22;12457;50.832;4.346;2023-08-17T08:19:00;20.00;99.90
24338;DHT22;12457;50.832;4.346;2023-08-17T08:21:26;20.20;99.90
24338;DHT22;12457;50.832;4.346;2023-08-17T08:23:53;20.30;99.90
24338;DHT22;12457;50.832;4.346;2023-08-17T08:26:20;20.10;99.90
24338;DHT22;12457;50.832;4.346;2023-08-17T08:28:45;20.20;99.90
24338;DHT22;12457;50.832;4.346;2023-08-17T08:31:12;20.10;99.90
24338;DHT22;12457;50.832;4.346;2023-08-17T08:33:38;20.30;99.90
24338;DHT22;12457;50.832;4.346;2023-08-17T08:36:04;20.40;99.90
24338;DHT22;12457;50.832;4.346;2023-08-17T08:38:32;20.50;99.90
24338;DHT22;12457;50.832;4.346;2023-08-17T08:40:59;20.50;99.90
24338;DHT22;12457;50.832;4.346;2023-08-17T08:43:24;20.50;99.90
24338;DHT22;12457;50.832;4.346;2023-08-17T08:45:54;20.20;99.90
24338;DHT22;12457;50.832;4.346;2023-08-17T08:48:29;20.20;99.90
24338;DHT22;12457;50.832;4.346;2023-08-17T08:50:59;20.10;99.90
24338;DHT22;12457;50.832;4.346;2023-08-17T08:53:32;19.90;99.90
24338;DHT22;12457;50.832;4.346;2023-08-17T08:56:03;20.00;99.90
24338;DHT22;12457;50.832;4.346;2023-08-17T08:58:31;20.00;99.90
24338;DHT22;12457;50.832;4.346;2023-08-17T09:01:07;19.90;99.90
24338;DHT22;12457;50.832;4.346;2023-08-17T09:03:35;19.80;99.90
24338;DHT22;12457;50.832;4.346;2023-08-17T09:06:02;19.80;99.90
24338;DHT22;12457;50.832;4.346;2023-08-17T09:08:30;20.10;99.90
24338;DHT22;12457;50.832;4.346;2023-08-17T09:10:56;20.30;99.90
24338;DHT22;12457;50.832;4.346;2023-08-17T09:13:22;20.50;99.90
24338;DHT22;12457;50.832;4.346;2023-08-17T09:15:48;20.60;99.90
24338;DHT22;12457;50.832;4.346;2023-08-17T09:18:16;20.70;99.90
24338;DHT22;12457;50.832;4.346;2023-08-17T09:20:44;21.00;99.90
24338;DHT22;12457;50.832;4.346;2023-08-17T09:23:20;21.20;99.90
24338;DHT22;12457;50.832;4.346;2023-08-17T09:25:48;21.20;99.90
24338;DHT22;12457;50.832;4.346;2023-08-17T09:28:17;21.40;99.90
24338;DHT22;12457;50.832;4.346;2023-08-17T09:33:26;21.50;99.90
24338;DHT22;12457;50.832;4.346;2023-08-17T09:35:55;21.70;99.90
24338;DHT22;12457;50.832;4.346;2023-08-17T09:38:21;21.80;99.90
24338;DHT22;12457;50.832;4.346;2023-08-17T09:40:50;22.00;99.90
24338;DHT22;12457;50.832;4.346;2023-08-17T09:43:17;22.30;99.90
24338;DHT22;12457;50.832;4.346;2023-08-17T09:45:44;22.40;99.90
24338;DHT22;12457;50.832;4.346;2023-08-17T09:48:15;22.40;99.90
24338;DHT22;12457;50.832;4.346;2023-08-17T09:50:43;22.60;99.90
24338;DHT22;12457;50.832;4.346;2023-08-17T09:53:13;22.60;99.90
24338;DHT22;12457;50.832;4.346;2023-08-17T09:55:41;22.50;99.90
24338;DHT22;12457;50.832;4.346;2023-08-17T09:58:07;22.30;99.90
24338;DHT22;12457;50.832;4.346;2023-08-17T10:00:34;22.20;99.90
24338;DHT22;12457;50.832;4.346;2023-08-17T10:03:02;22.40;99.90
24338;DHT22;12457;50.832;4.346;2023-08-17T10:05:33;22.60;99.90
24338;DHT22;12457;50.832;4.346;2023-08-17T10:08:02;22.70;99.90
24338;DHT22;12457;50.832;4.346;2023-08-17T10:10:29;22.60;99.90
24338;DHT22;12457;50.832;4.346;2023-08-17T10:13:09;22.40;99.90
24338;DHT22;12457;50.832;4.346;2023-08-17T10:15:41;22.60;99.90
24338;DHT22;12457;50.832;4.346;2023-08-17T10:21:18;23.00;99.90
24338;DHT22;12457;50.832;4.346;2023-08-17T10:23:46;22.70;99.90
24338;DHT22;12457;50.832;4.346;2023-08-17T10:26:13;22.40;99.90
24338;DHT22;12457;50.832;4.346;2023-08-17T10:28:39;22.80;99.90
24338;DHT22;12457;50.832;4.346;2023-08-17T10:31:06;23.00;99.90
24338;DHT22;12457;50.832;4.346;2023-08-17T10:33:35;23.10;99.90
24338;DHT22;12457;50.832;4.346;2023-08-17T10:36:01;23.30;99.90
24338;DHT22;12457;50.832;4.346;2023-08-17T10:38:29;23.30;99.90
24338;DHT22;12457;50.832;4.346;2023-08-17T10:41:11;23.30;99.90
24338;DHT22;12457;50.832;4.346;2023-08-17T10:43:59;23.20;99.90
24338;DHT22;12457;50.832;4.346;2023-08-17T10:46:36;23.30;99.90
24338;DHT22;12457;50.832;4.346;2023-08-17T10:49:31;23.00;99.90
24338;DHT22;12457;50.832;4.346;2023-08-17T10:52:04;23.00;99.90
24338;DHT22;12457;50.832;4.346;2023-08-17T10:54:39;22.90;99.90
24338;DHT22;12457;50.832;4.346;2023-08-17T10:57:36;23.20;99.90
24338;DHT22;12457;50.832;4.346;2023-08-17T11:00:20;23.00;99.90
24338;DHT22;12457;50.832;4.346;2023-08-17T11:03:04;23.10;99.90
24338;DHT22;12457;50.832;4.346;2023-08-17T11:06:15;23.00;99.90
24338;DHT22;12457;50.832;4.346;2023-08-17T11:08:56;22.80;99.90
24338;DHT22;12457;50.832;4.346;2023-08-17T11:11:22;23.00;99.90
24338;DHT22;12457;50.832;4.346;2023-08-17T11:13:49;23.20;99.90
24338;DHT22;12457;50.832;4.346;2023-08-17T11:16:19;23.20;99.90
24338;DHT22;12457;50.832;4.346;2023-08-17T11:18:48;23.50;99.90
24338;DHT22;12457;50.832;4.346;2023-08-17T11:21:16;23.40;99.90
24338;DHT22;12457;50.832;4.346;2023-08-17T11:23:42;23.60;99.90
24338;DHT22;12457;50.832;4.346;2023-08-17T11:26:08;23.80;99.90
24338;DHT22;12457;50.832;4.346;2023-08-17T11:28:35;23.80;99.90
24338;DHT22;12457;50.832;4.346;2023-08-17T11:31:09;23.50;99.90
24338;DHT22;12457;50.832;4.346;2023-08-17T11:33:44;23.80;99.90
24338;DHT22;12457;50.832;4.346;2023-08-17T11:36:12;23.80;99.90
24338;DHT22;12457;50.832;4.346;2023-08-17T11:38:43;23.70;99.90
24338;DHT22;12457;50.832;4.346;2023-08-17T11:41:10;23.50;99.90
24338;DHT22;12457;50.832;4.346;2023-08-17T11:43:36;23.40;99.90
24338;DHT22;12457;50.832;4.346;2023-08-17T11:46:03;23.70;99.90
24338;DHT22;12457;50.832;4.346;2023-08-17T11:48:42;23.50;99.90
24338;DHT22;12457;50.832;4.346;2023-08-17T11:51:08;23.40;99.90
24338;DHT22;12457;50.832;4.346;2023-08-17T11:53:36;23.30;99.90
24338;DHT22;12457;50.832;4.346;2023-08-17T11:56:02;23.10;99.90
24338;DHT22;12457;50.832;4.346;2023-08-17T11:58:45;23.00;99.90
24338;DHT22;12457;50.832;4.346;2023-08-17T12:01:13;23.00;99.90
24338;DHT22;12457;50.832;4.346;2023-08-17T12:03:41;23.10;99.90
24338;DHT22;12457;50.832;4.346;2023-08-17T12:06:08;23.00;99.90
24338;DHT22;12457;50.832;4.346;2023-08-17T12:08:34;23.20;99.90
24338;DHT22;12457;50.832;4.346;2023-08-17T12:11:02;23.00;99.90
24338;DHT22;12457;50.832;4.346;2023-08-17T12:13:34;23.00;99.90
24338;DHT22;12457;50.832;4.346;2023-08-17T12:16:00;22.90;99.90
24338;DHT22;12457;50.832;4.346;2023-08-17T12:18:27;23.10;99.90
24338;DHT22;12457;50.832;4.346;2023-08-17T12:20:54;23.10;99.90
24338;DHT22;12457;50.832;4.346;2023-08-17T12:23:20;23.00;99.90
24338;DHT22;12457;50.832;4.346;2023-08-17T12:25:46;22.90;99.90
24338;DHT22;12457;50.832;4.346;2023-08-17T12:28:14;22.60;99.90
24338;DHT22;12457;50.832;4.346;2023-08-17T12:30:41;22.70;99.90
24338;DHT22;12457;50.832;4.346;2023-08-17T12:33:07;22.40;99.90
24338;DHT22;12457;50.832;4.346;2023-08-17T12:35:33;22.30;99.90
24338;DHT22;12457;50.832;4.346;2023-08-17T12:37:59;22.30;99.90
24338;DHT22;12457;50.832;4.346;2023-08-17T12:40:28;22.40;99.90
24338;DHT22;12457;50.832;4.346;2023-08-17T12:42:53;22.60;99.90
24338;DHT22;12457;50.832;4.346;2023-08-17T12:45:19;22.70;99.90
24338;DHT22;12457;50.832;4.346;2023-08-17T12:47:45;22.80;99.90
24338;DHT22;12457;50.832;4.346;2023-08-17T12:50:10;23.00;99.90
24338;DHT22;12457;50.832;4.346;2023-08-17T12:52:36;23.00;99.90
24338;DHT22;12457;50.832;4.346;2023-08-17T12:55:02;23.00;99.90
24338;DHT22;12457;50.832;4.346;2023-08-17T12:57:28;22.60;99.90
24338;DHT22;12457;50.832;4.346;2023-08-17T12:59:54;22.60;99.90
24338;DHT22;12457;50.832;4.346;2023-08-17T13:02:21;22.90;99.90
24338;DHT22;12457;50.832;4.346;2023-08-17T13:05:15;23.30;99.90
24338;DHT22;12457;50.832;4.346;2023-08-17T13:07:41;23.50;99.90
24338;DHT22;12457;50.832;4.346;2023-08-17T13:10:08;23.50;99.90
24338;DHT22;12457;50.832;4.346;2023-08-17T13:12:35;23.10;99.90
24338;DHT22;12457;50.832;4.346;2023-08-17T13:15:01;23.20;99.90
24338;DHT22;12457;50.832;4.346;2023-08-17T13:17:27;23.60;99.90
24338;DHT22;12457;50.832;4.346;2023-08-17T13:19:52;23.70;99.90
24338;DHT22;12457;50.832;4.346;2023-08-17T13:22:19;23.30;99.90
24338;DHT22;12457;50.832;4.346;2023-08-17T13:24:46;22.70;99.90
24338;DHT22;12457;50.832;4.346;2023-08-17T13:27:12;22.50;99.90
24338;DHT22;12457;50.832;4.346;2023-08-17T13:29:38;22.60;99.90
24338;DHT22;12457;50.832;4.346;2023-08-17T13:32:04;22.50;99.90
24338;DHT22;12457;50.832;4.346;2023-08-17T13:34:30;22.60;99.90
24338;DHT22;12457;50.832;4.346;2023-08-17T13:36:57;22.70;99.90
24338;DHT22;12457;50.832;4.346;2023-08-17T13:39:24;22.70;99.90
24338;DHT22;12457;50.832;4.346;2023-08-17T13:41:52;22.70;99.90
24338;DHT22;12457;50.832;4.346;2023-08-17T13:44:18;22.90;99.90
24338;DHT22;12457;50.832;4.346;2023-08-17T13:46:43;22.80;99.90
24338;DHT22;12457;50.832;4.346;2023-08-17T13:49:09;23.00;99.90
24338;DHT22;12457;50.832;4.346;2023-08-17T13:51:35;23.40;99.90
24338;DHT22;12457;50.832;4.346;2023-08-17T13:54:06;23.50;99.90
24338;DHT22;12457;50.832;4.346;2023-08-17T13:56:34;23.40;99.90
24338;DHT22;12457;50.832;4.346;2023-08-17T13:59:02;23.50;99.90
24338;DHT22;12457;50.832;4.346;2023-08-17T14:01:30;23.60;99.90
24338;DHT22;12457;50.832;4.346;2023-08-17T14:03:56;23.60;99.90
24338;DHT22;12457;50.832;4.346;2023-08-17T14:06:22;23.30;99.90
24338;DHT22;12457;50.832;4.346;2023-08-17T14:08:48;23.30;99.90
24338;DHT22;12457;50.832;4.346;2023-08-17T14:11:16;23.60;99.90
24338;DHT22;12457;50.832;4.346;2023-08-17T14:13:45;23.50;99.90
24338;DHT22;12457;50.832;4.346;2023-08-17T14:16:15;23.30;99.90
24338;DHT22;12457;50.832;4.346;2023-08-17T14:18:41;23.40;99.90
24338;DHT22;12457;50.832;4.346;2023-08-17T14:21:08;23.40;99.90
24338;DHT22;12457;50.832;4.346;2023-08-17T14:23:38;23.50;99.90
24338;DHT22;12457;50.832;4.346;2023-08-17T14:26:04;23.50;99.90
24338;DHT22;12457;50.832;4.346;2023-08-17T14:28:33;23.40;99.90
24338;DHT22;12457;50.832;4.346;2023-08-17T14:31:07;23.10;99.90
24338;DHT22;12457;50.832;4.346;2023-08-17T14:33:41;22.90;99.90
24338;DHT22;12457;50.832;4.346;2023-08-17T14:36:19;22.90;99.90
24338;DHT22;12457;50.832;4.346;2023-08-17T14:38:45;22.90;99.90
24338;DHT22;12457;50.832;4.346;2023-08-17T14:41:17;22.80;99.90
24338;DHT22;12457;50.832;4.346;2023-08-17T14:43:42;22.70;99.90
24338;DHT22;12457;50.832;4.346;2023-08-17T14:46:10;22.90;99.90
24338;DHT22;12457;50.832;4.346;2023-08-17T14:48:36;22.80;99.90
24338;DHT22;12457;50.832;4.346;2023-08-17T14:51:21;22.70;99.90
24338;DHT22;12457;50.832;4.346;2023-08-17T14:53:48;22.70;99.90
24338;DHT22;12457;50.832;4.346;2023-08-17T14:56:14;22.80;99.90
24338;DHT22;12457;50.832;4.346;2023-08-17T14:58:40;22.70;99.90
24338;DHT22;12457;50.832;4.346;2023-08-17T15:01:10;22.60;99.90
24338;DHT22;12457;50.832;4.346;2023-08-17T15:03:55;22.30;99.90
24338;DHT22;12457;50.832;4.346;2023-08-17T15:06:36;22.20;99.90
24338;DHT22;12457;50.832;4.346;2023-08-17T15:09:05;22.20;99.90
24338;DHT22;12457;50.832;4.346;2023-08-17T15:11:31;22.40;99.90
24338;DHT22;12457;50.832;4.346;2023-08-17T15:13:57;22.60;99.90
24338;DHT22;12457;50.832;4.346;2023-08-17T15:16:22;22.40;99.90
24338;DHT22;12457;50.832;4.346;2023-08-17T15:18:52;22.50;99.90
24338;DHT22;12457;50.832;4.346;2023-08-17T15:21:19;22.70;99.90
24338;DHT22;12457;50.832;4.346;2023-08-17T15:23:44;23.00;99.90
24338;DHT22;12457;50.832;4.346;2023-08-17T15:26:10;23.00;99.90
24338;DHT22;12457;50.832;4.346;2023-08-17T15:28:37;22.90;99.90
24338;DHT22;12457;50.832;4.346;2023-08-17T15:31:03;22.70;99.90
24338;DHT22;12457;50.832;4.346;2023-08-17T15:33:39;23.00;99.90
24338;DHT22;12457;50.832;4.346;2023-08-17T15:36:06;23.30;99.90
24338;DHT22;12457;50.832;4.346;2023-08-17T15:38:33;23.40;99.90
24338;DHT22;12457;50.832;4.346;2023-08-17T15:40:58;23.30;99.90
24338;DHT22;12457;50.832;4.346;2023-08-17T15:43:25;23.10;99.90